sensor_id;sensor_type;location;lat;lon;timestamp;P1;durP1;ratioP1;P2;durP2;ratioP2
24173;SDS011;12324;48.146;11.502;2023-03-19T00:00:25;28.42;;;15.93;;
24173;SDS011;12324;48.146;11.502;2023-03-19T00:02:52;26.05;;;14.02;;
24173;SDS011;12324;48.146;11.502;2023-03-19T00:05:19;26.85;;;14.52;;
24173;SDS011;12324;48.146;11.502;2023-03-19T00:07:46;27.55;;;14.07;;
24173;SDS011;12324;48.146;11.502;2023-03-19T00:10:12;29.23;;;13.48;;
24173;SDS011;12324;48.146;11.502;2023-03-19T00:12:39;28.42;;;13.38;;
24173;SDS011;12324;48.146;11.502;2023-03-19T00:15:07;25.95;;;13.07;;
24173;SDS011;12324;48.146;11.502;2023-03-19T00:17:39;29.75;;;13.90;;
24173;SDS011;12324;48.146;11.502;2023-03-19T00:20:07;25.50;;;13.60;;
24173;SDS011;12324;48.146;11.502;2023-03-19T00:22:34;25.42;;;13.60;;
24173;SDS011;12324;48.146;11.502;2023-03-19T00:25:01;23.95;;;12.57;;
24173;SDS011;12324;48.146;11.502;2023-03-19T00:27:28;28.13;;;14.07;;
24173;SDS011;12324;48.146;11.502;2023-03-19T00:29:56;24.63;;;13.80;;
24173;SDS011;12324;48.146;11.502;2023-03-19T00:32:22;37.22;;;15.25;;
24173;SDS011;12324;48.146;11.502;2023-03-19T00:34:50;28.17;;;14.38;;
24173;SDS011;12324;48.146;11.502;2023-03-19T00:37:17;29.92;;;16.15;;
24173;SDS011;12324;48.146;11.502;2023-03-19T00:39:44;25.42;;;14.93;;
24173;SDS011;12324;48.146;11.502;2023-03-19T00:42:10;31.38;;;16.08;;
24173;SDS011;12324;48.146;11.502;2023-03-19T00:44:37;25.23;;;15.27;;
24173;SDS011;12324;48.146;11.502;2023-03-19T00:47:04;29.05;;;14.25;;
24173;SDS011;12324;48.146;11.502;2023-03-19T00:49:32;26.42;;;13.10;;
24173;SDS011;12324;48.146;11.502;2023-03-19T00:51:59;25.08;;;13.43;;
24173;SDS011;12324;48.146;11.502;2023-03-19T00:54:25;27.48;;;13.48;;
24173;SDS011;12324;48.146;11.502;2023-03-19T00:56:52;25.08;;;13.70;;
24173;SDS011;12324;48.146;11.502;2023-03-19T00:59:19;24.00;;;12.48;;
24173;SDS011;12324;48.146;11.502;2023-03-19T01:01:46;22.00;;;12.23;;
24173;SDS011;12324;48.146;11.502;2023-03-19T01:04:12;24.60;;;13.45;;
24173;SDS011;12324;48.146;11.502;2023-03-19T01:06:40;25.33;;;13.18;;
24173;SDS011;12324;48.146;11.502;2023-03-19T01:09:06;23.92;;;12.85;;
24173;SDS011;12324;48.146;11.502;2023-03-19T01:11:33;24.63;;;12.50;;
24173;SDS011;12324;48.146;11.502;2023-03-19T01:14:01;24.00;;;12.50;;
24173;SDS011;12324;48.146;11.502;2023-03-19T01:16:28;24.35;;;11.00;;
24173;SDS011;12324;48.146;11.502;2023-03-19T01:18:55;23.98;;;12.18;;
24173;SDS011;12324;48.146;11.502;2023-03-19T01:21:21;24.60;;;11.82;;
24173;SDS011;12324;48.146;11.502;2023-03-19T01:23:48;23.00;;;11.43;;
24173;SDS011;12324;48.146;11.502;2023-03-19T01:26:16;24.48;;;11.75;;
24173;SDS011;12324;48.146;11.502;2023-03-19T01:28:43;24.00;;;11.45;;
24173;SDS011;12324;48.146;11.502;2023-03-19T01:31:10;22.25;;;10.75;;
24173;SDS011;12324;48.146;11.502;2023-03-19T01:33:37;23.25;;;12.30;;
24173;SDS011;12324;48.146;11.502;2023-03-19T01:36:04;26.05;;;10.73;;
24173;SDS011;12324;48.146;11.502;2023-03-19T01:38:31;23.00;;;11.80;;
24173;SDS011;12324;48.146;11.502;2023-03-19T01:40:58;21.23;;;10.60;;
24173;SDS011;12324;48.146;11.502;2023-03-19T01:43:26;20.83;;;8.90;;
24173;SDS011;12324;48.146;11.502;2023-03-19T01:45:56;20.70;;;9.55;;
24173;SDS011;12324;48.146;11.502;2023-03-19T01:48:36;20.80;;;9.02;;
24173;SDS011;12324;48.146;11.502;2023-03-19T01:51:07;19.67;;;10.07;;
24173;SDS011;12324;48.146;11.502;2023-03-19T01:53:36;16.67;;;7.93;;
24173;SDS011;12324;48.146;11.502;2023-03-19T01:58:48;20.52;;;8.60;;
24173;SDS011;12324;48.146;11.502;2023-03-19T02:01:19;19.48;;;8.00;;
24173;SDS011;12324;48.146;11.502;2023-03-19T02:03:46;18.75;;;7.50;;
24173;SDS011;12324;48.146;11.502;2023-03-19T02:06:16;17.73;;;8.13;;
24173;SDS011;12324;48.146;11.502;2023-03-19T02:08:47;16.20;;;7.25;;
24173;SDS011;12324;48.146;11.502;2023-03-19T02:11:16;19.13;;;7.85;;
24173;SDS011;12324;48.146;11.502;2023-03-19T02:13:44;15.80;;;7.00;;
24173;SDS011;12324;48.146;11.502;2023-03-19T02:16:12;16.25;;;8.25;;
24173;SDS011;12324;48.146;11.502;2023-03-19T02:18:39;17.38;;;7.22;;
24173;SDS011;12324;48.146;11.502;2023-03-19T02:26:39;17.48;;;6.72;;
24173;SDS011;12324;48.146;11.502;2023-03-19T02:29:06;15.85;;;6.65;;
24173;SDS011;12324;48.146;11.502;2023-03-19T02:31:33;15.18;;;6.28;;
24173;SDS011;12324;48.146;11.502;2023-03-19T02:36:40;14.63;;;6.57;;
24173;SDS011;12324;48.146;11.502;2023-03-19T02:39:22;18.88;;;7.00;;
24173;SDS011;12324;48.146;11.502;2023-03-19T02:41:53;16.98;;;7.00;;
24173;SDS011;12324;48.146;11.502;2023-03-19T02:44:21;15.88;;;6.05;;
24173;SDS011;12324;48.146;11.502;2023-03-19T02:46:48;21.13;;;7.13;;
24173;SDS011;12324;48.146;11.502;2023-03-19T02:49:14;19.63;;;6.70;;
24173;SDS011;12324;48.146;11.502;2023-03-19T02:51:41;15.70;;;6.43;;
24173;SDS011;12324;48.146;11.502;2023-03-19T02:54:08;15.60;;;7.25;;
24173;SDS011;12324;48.146;11.502;2023-03-19T02:56:34;14.52;;;6.85;;
24173;SDS011;12324;48.146;11.502;2023-03-19T02:59:01;15.55;;;6.47;;
24173;SDS011;12324;48.146;11.502;2023-03-19T03:01:28;13.98;;;7.00;;
24173;SDS011;12324;48.146;11.502;2023-03-19T03:03:55;17.98;;;7.07;;
24173;SDS011;12324;48.146;11.502;2023-03-19T03:06:21;16.65;;;7.22;;
24173;SDS011;12324;48.146;11.502;2023-03-19T03:08:48;16.00;;;6.35;;
24173;SDS011;12324;48.146;11.502;2023-03-19T03:11:15;17.23;;;7.22;;
24173;SDS011;12324;48.146;11.502;2023-03-19T03:13:41;17.77;;;7.63;;
24173;SDS011;12324;48.146;11.502;2023-03-19T03:16:08;15.18;;;7.35;;
24173;SDS011;12324;48.146;11.502;2023-03-19T03:18:34;17.58;;;6.85;;
24173;SDS011;12324;48.146;11.502;2023-03-19T03:21:01;17.10;;;7.13;;
24173;SDS011;12324;48.146;11.502;2023-03-19T03:23:28;20.50;;;6.85;;
24173;SDS011;12324;48.146;11.502;2023-03-19T03:25:55;17.02;;;7.53;;
24173;SDS011;12324;48.146;11.502;2023-03-19T03:28:22;16.00;;;6.97;;
24173;SDS011;12324;48.146;11.502;2023-03-19T03:30:49;18.40;;;7.57;;
24173;SDS011;12324;48.146;11.502;2023-03-19T03:33:16;19.67;;;7.65;;
24173;SDS011;12324;48.146;11.502;2023-03-19T03:35:43;17.40;;;7.40;;
24173;SDS011;12324;48.146;11.502;2023-03-19T03:38:10;16.92;;;8.13;;
24173;SDS011;12324;48.146;11.502;2023-03-19T03:40:37;20.48;;;8.07;;
24173;SDS011;12324;48.146;11.502;2023-03-19T03:43:04;17.25;;;7.40;;
24173;SDS011;12324;48.146;11.502;2023-03-19T03:45:31;18.42;;;6.95;;
24173;SDS011;12324;48.146;11.502;2023-03-19T03:47:58;14.98;;;6.72;;
24173;SDS011;12324;48.146;11.502;2023-03-19T03:50:25;14.57;;;6.15;;
24173;SDS011;12324;48.146;11.502;2023-03-19T03:52:51;15.00;;;6.78;;
24173;SDS011;12324;48.146;11.502;2023-03-19T03:55:18;16.65;;;7.15;;
24173;SDS011;12324;48.146;11.502;2023-03-19T03:57:44;19.40;;;6.72;;
24173;SDS011;12324;48.146;11.502;2023-03-19T04:00:11;16.08;;;6.90;;
24173;SDS011;12324;48.146;11.502;2023-03-19T04:02:39;16.50;;;7.28;;
24173;SDS011;12324;48.146;11.502;2023-03-19T04:05:06;16.25;;;6.70;;
24173;SDS011;12324;48.146;11.502;2023-03-19T04:07:33;16.13;;;7.03;;
24173;SDS011;12324;48.146;11.502;2023-03-19T04:09:59;16.73;;;7.45;;
24173;SDS011;12324;48.146;11.502;2023-03-19T04:12:27;17.42;;;6.75;;
24173;SDS011;12324;48.146;11.502;2023-03-19T04:14:53;16.70;;;7.20;;
24173;SDS011;12324;48.146;11.502;2023-03-19T04:17:20;14.13;;;6.20;;
24173;SDS011;12324;48.146;11.502;2023-03-19T04:19:47;20.80;;;7.65;;
24173;SDS011;12324;48.146;11.502;2023-03-19T04:22:14;16.20;;;7.25;;
24173;SDS011;12324;48.146;11.502;2023-03-19T04:24:41;14.70;;;6.57;;
24173;SDS011;12324;48.146;11.502;2023-03-19T04:27:07;14.90;;;6.93;;
24173;SDS011;12324;48.146;11.502;2023-03-19T04:29:34;15.43;;;6.57;;
24173;SDS011;12324;48.146;11.502;2023-03-19T04:32:01;17.42;;;6.72;;
24173;SDS011;12324;48.146;11.502;2023-03-19T04:34:27;14.73;;;6.97;;
24173;SDS011;12324;48.146;11.502;2023-03-19T04:36:54;16.40;;;6.97;;
24173;SDS011;12324;48.146;11.502;2023-03-19T04:39:21;15.40;;;6.35;;
24173;SDS011;12324;48.146;11.502;2023-03-19T04:41:48;21.05;;;7.90;;
24173;SDS011;12324;48.146;11.502;2023-03-19T04:44:15;22.77;;;7.55;;
24173;SDS011;12324;48.146;11.502;2023-03-19T04:46:42;17.25;;;7.00;;
24173;SDS011;12324;48.146;11.502;2023-03-19T04:49:11;16.58;;;7.30;;
24173;SDS011;12324;48.146;11.502;2023-03-19T04:51:38;15.48;;;7.05;;
24173;SDS011;12324;48.146;11.502;2023-03-19T04:54:04;15.93;;;6.65;;
24173;SDS011;12324;48.146;11.502;2023-03-19T04:56:31;15.05;;;6.05;;
24173;SDS011;12324;48.146;11.502;2023-03-19T04:58:58;17.08;;;6.20;;
24173;SDS011;12324;48.146;11.502;2023-03-19T05:01:25;14.38;;;6.22;;
24173;SDS011;12324;48.146;11.502;2023-03-19T05:03:52;15.88;;;6.75;;
24173;SDS011;12324;48.146;11.502;2023-03-19T05:06:19;17.02;;;7.22;;
24173;SDS011;12324;48.146;11.502;2023-03-19T05:08:46;14.77;;;6.80;;
24173;SDS011;12324;48.146;11.502;2023-03-19T05:11:13;17.55;;;7.78;;
24173;SDS011;12324;48.146;11.502;2023-03-19T05:13:40;16.15;;;7.15;;
24173;SDS011;12324;48.146;11.502;2023-03-19T05:16:07;14.93;;;6.43;;
24173;SDS011;12324;48.146;11.502;2023-03-19T05:18:34;17.88;;;7.60;;
24173;SDS011;12324;48.146;11.502;2023-03-19T05:21:01;15.93;;;6.78;;
24173;SDS011;12324;48.146;11.502;2023-03-19T05:23:29;15.13;;;7.53;;
24173;SDS011;12324;48.146;11.502;2023-03-19T05:25:57;18.75;;;7.05;;
24173;SDS011;12324;48.146;11.502;2023-03-19T05:28:26;13.15;;;6.78;;
24173;SDS011;12324;48.146;11.502;2023-03-19T05:30:53;15.85;;;7.63;;
24173;SDS011;12324;48.146;11.502;2023-03-19T05:33:19;15.88;;;7.05;;
24173;SDS011;12324;48.146;11.502;2023-03-19T05:35:47;17.05;;;6.80;;
24173;SDS011;12324;48.146;11.502;2023-03-19T05:38:14;19.85;;;7.53;;
24173;SDS011;12324;48.146;11.502;2023-03-19T05:40:41;16.45;;;7.38;;
24173;SDS011;12324;48.146;11.502;2023-03-19T05:43:08;16.05;;;7.10;;
24173;SDS011;12324;48.146;11.502;2023-03-19T05:45:36;18.15;;;7.85;;
24173;SDS011;12324;48.146;11.502;2023-03-19T05:48:03;16.02;;;7.20;;
24173;SDS011;12324;48.146;11.502;2023-03-19T05:50:31;18.30;;;8.15;;
24173;SDS011;12324;48.146;11.502;2023-03-19T05:52:59;19.45;;;8.02;;
24173;SDS011;12324;48.146;11.502;2023-03-19T05:55:25;19.27;;;7.88;;
24173;SDS011;12324;48.146;11.502;2023-03-19T05:57:52;18.20;;;8.30;;
24173;SDS011;12324;48.146;11.502;2023-03-19T06:00:19;18.08;;;6.97;;
24173;SDS011;12324;48.146;11.502;2023-03-19T06:02:46;18.48;;;8.38;;
24173;SDS011;12324;48.146;11.502;2023-03-19T06:05:13;19.73;;;8.25;;
24173;SDS011;12324;48.146;11.502;2023-03-19T06:07:40;17.35;;;7.50;;
24173;SDS011;12324;48.146;11.502;2023-03-19T06:10:08;17.70;;;7.88;;
24173;SDS011;12324;48.146;11.502;2023-03-19T06:12:35;17.25;;;8.55;;
24173;SDS011;12324;48.146;11.502;2023-03-19T06:15:02;17.50;;;9.30;;
24173;SDS011;12324;48.146;11.502;2023-03-19T06:17:29;21.48;;;9.43;;
24173;SDS011;12324;48.146;11.502;2023-03-19T06:19:55;19.08;;;10.30;;
24173;SDS011;12324;48.146;11.502;2023-03-19T06:22:22;19.17;;;10.00;;
24173;SDS011;12324;48.146;11.502;2023-03-19T06:24:49;19.15;;;9.13;;
24173;SDS011;12324;48.146;11.502;2023-03-19T06:27:16;18.88;;;10.10;;
24173;SDS011;12324;48.146;11.502;2023-03-19T06:29:42;19.35;;;10.77;;
24173;SDS011;12324;48.146;11.502;2023-03-19T06:32:09;18.33;;;9.25;;
24173;SDS011;12324;48.146;11.502;2023-03-19T06:34:36;22.63;;;10.70;;
24173;SDS011;12324;48.146;11.502;2023-03-19T06:37:02;17.20;;;9.90;;
24173;SDS011;12324;48.146;11.502;2023-03-19T06:39:29;21.73;;;10.25;;
24173;SDS011;12324;48.146;11.502;2023-03-19T06:41:56;18.90;;;9.48;;
24173;SDS011;12324;48.146;11.502;2023-03-19T06:44:23;18.73;;;9.43;;
24173;SDS011;12324;48.146;11.502;2023-03-19T06:46:50;18.88;;;10.20;;
24173;SDS011;12324;48.146;11.502;2023-03-19T06:49:17;20.92;;;9.30;;
24173;SDS011;12324;48.146;11.502;2023-03-19T06:51:44;19.15;;;8.88;;
24173;SDS011;12324;48.146;11.502;2023-03-19T06:54:11;21.70;;;9.40;;
24173;SDS011;12324;48.146;11.502;2023-03-19T06:56:37;19.48;;;9.73;;
24173;SDS011;12324;48.146;11.502;2023-03-19T06:59:04;18.80;;;9.75;;
24173;SDS011;12324;48.146;11.502;2023-03-19T07:01:31;19.27;;;9.05;;
24173;SDS011;12324;48.146;11.502;2023-03-19T07:03:57;21.27;;;9.52;;
24173;SDS011;12324;48.146;11.502;2023-03-19T07:06:25;16.67;;;9.38;;
24173;SDS011;12324;48.146;11.502;2023-03-19T07:08:52;19.90;;;9.43;;
24173;SDS011;12324;48.146;11.502;2023-03-19T07:11:19;21.30;;;9.13;;
24173;SDS011;12324;48.146;11.502;2023-03-19T07:13:46;17.33;;;8.48;;
24173;SDS011;12324;48.146;11.502;2023-03-19T07:16:13;19.83;;;9.38;;
24173;SDS011;12324;48.146;11.502;2023-03-19T07:18:40;19.30;;;9.10;;
24173;SDS011;12324;48.146;11.502;2023-03-19T07:21:07;19.35;;;9.25;;
24173;SDS011;12324;48.146;11.502;2023-03-19T07:23:34;17.83;;;8.57;;
24173;SDS011;12324;48.146;11.502;2023-03-19T07:26:01;15.27;;;8.30;;
24173;SDS011;12324;48.146;11.502;2023-03-19T07:28:28;20.15;;;8.52;;
24173;SDS011;12324;48.146;11.502;2023-03-19T07:30:55;17.25;;;8.35;;
24173;SDS011;12324;48.146;11.502;2023-03-19T07:33:22;19.73;;;7.82;;
24173;SDS011;12324;48.146;11.502;2023-03-19T07:35:50;16.70;;;7.63;;
24173;SDS011;12324;48.146;11.502;2023-03-19T07:38:17;15.93;;;6.97;;
24173;SDS011;12324;48.146;11.502;2023-03-19T07:40:44;15.75;;;6.90;;
24173;SDS011;12324;48.146;11.502;2023-03-19T07:43:27;14.23;;;7.18;;
24173;SDS011;12324;48.146;11.502;2023-03-19T07:45:54;12.70;;;6.18;;
24173;SDS011;12324;48.146;11.502;2023-03-19T07:48:21;12.02;;;5.80;;
24173;SDS011;12324;48.146;11.502;2023-03-19T07:50:49;11.10;;;5.57;;
24173;SDS011;12324;48.146;11.502;2023-03-19T07:53:16;13.70;;;5.97;;
24173;SDS011;12324;48.146;11.502;2023-03-19T07:55:43;13.52;;;6.20;;
24173;SDS011;12324;48.146;11.502;2023-03-19T07:58:10;13.23;;;5.70;;
24173;SDS011;12324;48.146;11.502;2023-03-19T08:00:37;13.88;;;6.07;;
24173;SDS011;12324;48.146;11.502;2023-03-19T08:03:04;17.08;;;6.85;;
24173;SDS011;12324;48.146;11.502;2023-03-19T08:05:32;14.50;;;6.55;;
24173;SDS011;12324;48.146;11.502;2023-03-19T08:07:59;12.77;;;6.20;;
24173;SDS011;12324;48.146;11.502;2023-03-19T08:10:26;12.63;;;5.70;;
24173;SDS011;12324;48.146;11.502;2023-03-19T08:12:53;14.13;;;6.05;;
24173;SDS011;12324;48.146;11.502;2023-03-19T08:15:21;16.58;;;6.15;;
24173;SDS011;12324;48.146;11.502;2023-03-19T08:17:48;13.80;;;5.80;;
24173;SDS011;12324;48.146;11.502;2023-03-19T08:20:15;13.65;;;6.22;;
24173;SDS011;12324;48.146;11.502;2023-03-19T08:22:42;15.20;;;6.60;;
24173;SDS011;12324;48.146;11.502;2023-03-19T08:25:10;14.00;;;6.30;;
24173;SDS011;12324;48.146;11.502;2023-03-19T08:27:37;15.13;;;6.72;;
24173;SDS011;12324;48.146;11.502;2023-03-19T08:30:04;14.43;;;6.30;;
24173;SDS011;12324;48.146;11.502;2023-03-19T08:32:32;12.27;;;6.05;;
24173;SDS011;12324;48.146;11.502;2023-03-19T08:34:59;13.38;;;6.40;;
24173;SDS011;12324;48.146;11.502;2023-03-19T08:37:26;14.23;;;6.45;;
24173;SDS011;12324;48.146;11.502;2023-03-19T08:39:54;11.60;;;5.28;;
24173;SDS011;12324;48.146;11.502;2023-03-19T08:42:21;12.35;;;6.13;;
24173;SDS011;12324;48.146;11.502;2023-03-19T08:44:48;13.55;;;6.45;;
24173;SDS011;12324;48.146;11.502;2023-03-19T08:47:16;12.90;;;5.72;;
24173;SDS011;12324;48.146;11.502;2023-03-19T08:49:43;13.05;;;6.05;;
24173;SDS011;12324;48.146;11.502;2023-03-19T08:52:10;13.90;;;6.53;;
24173;SDS011;12324;48.146;11.502;2023-03-19T08:54:37;8.93;;;4.95;;
24173;SDS011;12324;48.146;11.502;2023-03-19T08:57:04;15.90;;;5.47;;
24173;SDS011;12324;48.146;11.502;2023-03-19T08:59:31;12.65;;;6.30;;
24173;SDS011;12324;48.146;11.502;2023-03-19T09:01:59;14.10;;;6.32;;
24173;SDS011;12324;48.146;11.502;2023-03-19T09:04:27;12.05;;;5.15;;
24173;SDS011;12324;48.146;11.502;2023-03-19T09:06:54;15.80;;;5.97;;
24173;SDS011;12324;48.146;11.502;2023-03-19T09:09:22;12.73;;;5.50;;
24173;SDS011;12324;48.146;11.502;2023-03-19T09:11:49;13.98;;;5.38;;
24173;SDS011;12324;48.146;11.502;2023-03-19T09:14:17;12.20;;;5.32;;
24173;SDS011;12324;48.146;11.502;2023-03-19T09:16:45;14.23;;;5.20;;
24173;SDS011;12324;48.146;11.502;2023-03-19T09:19:12;9.57;;;4.45;;
24173;SDS011;12324;48.146;11.502;2023-03-19T09:21:39;15.35;;;5.57;;
24173;SDS011;12324;48.146;11.502;2023-03-19T09:24:06;12.10;;;5.70;;
24173;SDS011;12324;48.146;11.502;2023-03-19T09:26:33;12.27;;;5.10;;
24173;SDS011;12324;48.146;11.502;2023-03-19T09:29:00;11.60;;;5.05;;
24173;SDS011;12324;48.146;11.502;2023-03-19T09:31:27;10.75;;;5.07;;
24173;SDS011;12324;48.146;11.502;2023-03-19T09:33:55;10.60;;;4.90;;
24173;SDS011;12324;48.146;11.502;2023-03-19T09:36:22;13.75;;;5.07;;
24173;SDS011;12324;48.146;11.502;2023-03-19T09:38:49;12.68;;;5.63;;
24173;SDS011;12324;48.146;11.502;2023-03-19T09:46:47;12.55;;;5.25;;
24173;SDS011;12324;48.146;11.502;2023-03-19T09:49:22;12.88;;;5.57;;
24173;SDS011;12324;48.146;11.502;2023-03-19T09:52:19;13.65;;;5.65;;
24173;SDS011;12324;48.146;11.502;2023-03-19T09:54:58;13.32;;;5.82;;
24173;SDS011;12324;48.146;11.502;2023-03-19T09:57:32;11.75;;;5.38;;
24173;SDS011;12324;48.146;11.502;2023-03-19T10:00:05;12.77;;;5.15;;
24173;SDS011;12324;48.146;11.502;2023-03-19T10:02:50;12.38;;;5.40;;
24173;SDS011;12324;48.146;11.502;2023-03-19T10:16:27;10.63;;;4.90;;
24173;SDS011;12324;48.146;11.502;2023-03-19T10:18:58;14.38;;;5.53;;
24173;SDS011;12324;48.146;11.502;2023-03-19T10:21:37;10.40;;;4.78;;
24173;SDS011;12324;48.146;11.502;2023-03-19T10:24:11;13.63;;;4.60;;
24173;SDS011;12324;48.146;11.502;2023-03-19T10:26:44;11.02;;;5.15;;
24173;SDS011;12324;48.146;11.502;2023-03-19T10:29:15;12.60;;;4.93;;
24173;SDS011;12324;48.146;11.502;2023-03-19T10:34:28;10.13;;;4.60;;
24173;SDS011;12324;48.146;11.502;2023-03-19T10:37:01;9.40;;;4.78;;
24173;SDS011;12324;48.146;11.502;2023-03-19T10:39:31;11.05;;;4.70;;
24173;SDS011;12324;48.146;11.502;2023-03-19T10:44:55;12.70;;;5.10;;
24173;SDS011;12324;48.146;11.502;2023-03-19T10:47:40;12.88;;;5.47;;
24173;SDS011;12324;48.146;11.502;2023-03-19T10:50:16;9.43;;;4.38;;
24173;SDS011;12324;48.146;11.502;2023-03-19T10:52:48;14.13;;;5.18;;
24173;SDS011;12324;48.146;11.502;2023-03-19T10:55:17;13.07;;;4.97;;
24173;SDS011;12324;48.146;11.502;2023-03-19T10:57:50;12.52;;;5.80;;
24173;SDS011;12324;48.146;11.502;2023-03-19T11:00:22;13.55;;;5.80;;
24173;SDS011;12324;48.146;11.502;2023-03-19T11:02:50;15.68;;;4.97;;
24173;SDS011;12324;48.146;11.502;2023-03-19T11:05:25;10.18;;;4.93;;
24173;SDS011;12324;48.146;11.502;2023-03-19T11:08:01;11.13;;;4.45;;
24173;SDS011;12324;48.146;11.502;2023-03-19T11:10:29;8.63;;;4.20;;
24173;SDS011;12324;48.146;11.502;2023-03-19T11:12:58;8.50;;;3.97;;
24173;SDS011;12324;48.146;11.502;2023-03-19T11:15:35;13.57;;;5.30;;
24173;SDS011;12324;48.146;11.502;2023-03-19T11:18:07;8.80;;;4.35;;
24173;SDS011;12324;48.146;11.502;2023-03-19T11:20:40;9.35;;;4.28;;
24173;SDS011;12324;48.146;11.502;2023-03-19T11:23:13;10.25;;;4.47;;
24173;SDS011;12324;48.146;11.502;2023-03-19T11:25:51;11.80;;;4.50;;
24173;SDS011;12324;48.146;11.502;2023-03-19T11:28:20;13.15;;;5.35;;
24173;SDS011;12324;48.146;11.502;2023-03-19T11:33:24;11.80;;;5.07;;
24173;SDS011;12324;48.146;11.502;2023-03-19T11:36:08;11.50;;;4.65;;
24173;SDS011;12324;48.146;11.502;2023-03-19T11:49:52;12.43;;;4.28;;
24173;SDS011;12324;48.146;11.502;2023-03-19T11:52:03;12.23;;;4.57;;
24173;SDS011;12324;48.146;11.502;2023-03-19T11:57:11;9.30;;;4.10;;
24173;SDS011;12324;48.146;11.502;2023-03-19T11:59:52;10.75;;;4.55;;
24173;SDS011;12324;48.146;11.502;2023-03-19T12:04:55;9.35;;;4.00;;
24173;SDS011;12324;48.146;11.502;2023-03-19T12:12:33;9.85;;;4.43;;
24173;SDS011;12324;48.146;11.502;2023-03-19T12:20:24;9.77;;;4.57;;
24173;SDS011;12324;48.146;11.502;2023-03-19T12:25:43;9.15;;;4.30;;
24173;SDS011;12324;48.146;11.502;2023-03-19T12:28:31;10.07;;;3.95;;
24173;SDS011;12324;48.146;11.502;2023-03-19T12:31:03;12.52;;;4.60;;
24173;SDS011;12324;48.146;11.502;2023-03-19T12:36:00;9.88;;;4.13;;
24173;SDS011;12324;48.146;11.502;2023-03-19T12:38:50;9.07;;;4.25;;
24173;SDS011;12324;48.146;11.502;2023-03-19T12:41:21;9.73;;;4.40;;
24173;SDS011;12324;48.146;11.502;2023-03-19T12:49:29;9.55;;;4.20;;
24173;SDS011;12324;48.146;11.502;2023-03-19T12:52:15;9.00;;;3.80;;
24173;SDS011;12324;48.146;11.502;2023-03-19T12:54:46;10.35;;;3.75;;
24173;SDS011;12324;48.146;11.502;2023-03-19T12:57:20;9.32;;;3.80;;
24173;SDS011;12324;48.146;11.502;2023-03-19T13:00:07;8.77;;;4.20;;
24173;SDS011;12324;48.146;11.502;2023-03-19T13:05:23;14.10;;;3.58;;
24173;SDS011;12324;48.146;11.502;2023-03-19T13:10:38;9.85;;;3.92;;
24173;SDS011;12324;48.146;11.502;2023-03-19T13:13:12;8.27;;;3.17;;
24173;SDS011;12324;48.146;11.502;2023-03-19T13:15:45;11.50;;;3.80;;
24173;SDS011;12324;48.146;11.502;2023-03-19T13:23:11;11.27;;;3.97;;
24173;SDS011;12324;48.146;11.502;2023-03-19T13:25:40;10.77;;;3.85;;
24173;SDS011;12324;48.146;11.502;2023-03-19T13:28:11;7.47;;;3.33;;
24173;SDS011;12324;48.146;11.502;2023-03-19T13:30:38;8.82;;;3.53;;
24173;SDS011;12324;48.146;11.502;2023-03-19T13:33:16;7.97;;;4.00;;
24173;SDS011;12324;48.146;11.502;2023-03-19T13:35:50;9.30;;;3.88;;
24173;SDS011;12324;48.146;11.502;2023-03-19T13:38:23;12.00;;;3.92;;
24173;SDS011;12324;48.146;11.502;2023-03-19T13:40:52;8.02;;;4.03;;
24173;SDS011;12324;48.146;11.502;2023-03-19T13:48:36;10.00;;;4.10;;
24173;SDS011;12324;48.146;11.502;2023-03-19T13:51:07;8.48;;;4.05;;
24173;SDS011;12324;48.146;11.502;2023-03-19T13:54:33;11.80;;;5.10;;
24173;SDS011;12324;48.146;11.502;2023-03-19T13:59:27;8.15;;;3.88;;
24173;SDS011;12324;48.146;11.502;2023-03-19T14:01:55;8.73;;;4.00;;
24173;SDS011;12324;48.146;11.502;2023-03-19T14:06:56;11.68;;;3.85;;
24173;SDS011;12324;48.146;11.502;2023-03-19T14:12:11;10.27;;;4.10;;
24173;SDS011;12324;48.146;11.502;2023-03-19T14:17:31;9.27;;;3.40;;
24173;SDS011;12324;48.146;11.502;2023-03-19T14:31:14;8.70;;;3.47;;
24173;SDS011;12324;48.146;11.502;2023-03-19T14:36:46;9.40;;;3.38;;
24173;SDS011;12324;48.146;11.502;2023-03-19T14:39:21;10.98;;;4.10;;
24173;SDS011;12324;48.146;11.502;2023-03-19T14:41:51;8.90;;;3.70;;
24173;SDS011;12324;48.146;11.502;2023-03-19T14:55:36;12.38;;;3.60;;
24173;SDS011;12324;48.146;11.502;2023-03-19T14:58:03;8.10;;;3.10;;
24173;SDS011;12324;48.146;11.502;2023-03-19T15:00:50;6.80;;;3.00;;
24173;SDS011;12324;48.146;11.502;2023-03-19T15:03:30;7.95;;;3.28;;
24173;SDS011;12324;48.146;11.502;2023-03-19T15:06:03;11.27;;;3.58;;
24173;SDS011;12324;48.146;11.502;2023-03-19T15:08:33;9.50;;;3.75;;
24173;SDS011;12324;48.146;11.502;2023-03-19T15:16:46;8.30;;;3.42;;
24173;SDS011;12324;48.146;11.502;2023-03-19T15:19:16;8.00;;;3.40;;
24173;SDS011;12324;48.146;11.502;2023-03-19T15:21:49;9.80;;;3.75;;
24173;SDS011;12324;48.146;11.502;2023-03-19T15:24:16;10.35;;;3.72;;
24173;SDS011;12324;48.146;11.502;2023-03-19T15:26:43;7.22;;;3.40;;
24173;SDS011;12324;48.146;11.502;2023-03-19T15:29:11;9.57;;;3.47;;
24173;SDS011;12324;48.146;11.502;2023-03-19T15:31:39;9.18;;;3.53;;
24173;SDS011;12324;48.146;11.502;2023-03-19T15:36:44;9.55;;;3.72;;
24173;SDS011;12324;48.146;11.502;2023-03-19T15:39:12;7.78;;;3.33;;
24173;SDS011;12324;48.146;11.502;2023-03-19T15:41:43;6.82;;;3.33;;
24173;SDS011;12324;48.146;11.502;2023-03-19T15:44:14;7.32;;;3.60;;
24173;SDS011;12324;48.146;11.502;2023-03-19T15:46:44;8.90;;;3.67;;
24173;SDS011;12324;48.146;11.502;2023-03-19T15:51:39;10.75;;;3.92;;
24173;SDS011;12324;48.146;11.502;2023-03-19T15:54:11;9.48;;;3.33;;
24173;SDS011;12324;48.146;11.502;2023-03-19T15:56:38;14.75;;;4.40;;
24173;SDS011;12324;48.146;11.502;2023-03-19T15:59:05;10.68;;;4.43;;
24173;SDS011;12324;48.146;11.502;2023-03-19T16:01:32;8.68;;;3.55;;
24173;SDS011;12324;48.146;11.502;2023-03-19T16:04:00;9.95;;;3.90;;
24173;SDS011;12324;48.146;11.502;2023-03-19T16:06:30;10.02;;;3.70;;
24173;SDS011;12324;48.146;11.502;2023-03-19T16:11:44;9.32;;;4.10;;
24173;SDS011;12324;48.146;11.502;2023-03-19T16:16:44;7.20;;;4.60;;
24173;SDS011;12324;48.146;11.502;2023-03-19T16:19:31;9.57;;;3.78;;
24173;SDS011;12324;48.146;11.502;2023-03-19T16:21:59;8.13;;;3.00;;
24173;SDS011;12324;48.146;11.502;2023-03-19T16:24:33;9.50;;;3.80;;
24173;SDS011;12324;48.146;11.502;2023-03-19T16:27:03;9.15;;;4.22;;
24173;SDS011;12324;48.146;11.502;2023-03-19T16:29:34;8.95;;;3.47;;
24173;SDS011;12324;48.146;11.502;2023-03-19T16:34:40;9.43;;;3.80;;
24173;SDS011;12324;48.146;11.502;2023-03-19T16:40:02;10.13;;;3.95;;
24173;SDS011;12324;48.146;11.502;2023-03-19T16:47:44;11.63;;;4.65;;
24173;SDS011;12324;48.146;11.502;2023-03-19T16:50:12;12.10;;;4.15;;
24173;SDS011;12324;48.146;11.502;2023-03-19T16:52:40;11.73;;;3.88;;
24173;SDS011;12324;48.146;11.502;2023-03-19T16:55:51;13.95;;;4.45;;
24173;SDS011;12324;48.146;11.502;2023-03-19T16:58:26;10.18;;;3.95;;
24173;SDS011;12324;48.146;11.502;2023-03-19T17:00:54;13.55;;;4.18;;
24173;SDS011;12324;48.146;11.502;2023-03-19T17:03:21;8.93;;;3.95;;